sensor_id;sensor_type;location;lat;lon;timestamp;P1;durP1;ratioP1;P2;durP2;ratioP2
13475;SDS011;6810;63.824;20.288;2022-11-14T00:02:36;2.73;;;1.60;;
13475;SDS011;6810;63.824;20.288;2022-11-14T00:05:22;1.60;;;1.23;;
13475;SDS011;6810;63.824;20.288;2022-11-14T00:08:18;3.43;;;1.43;;
13475;SDS011;6810;63.824;20.288;2022-11-14T00:11:05;3.03;;;1.87;;
13475;SDS011;6810;63.824;20.288;2022-11-14T00:13:51;1.57;;;1.40;;
13475;SDS011;6810;63.824;20.288;2022-11-14T00:16:36;2.63;;;1.40;;
13475;SDS011;6810;63.824;20.288;2022-11-14T00:19:21;3.23;;;1.70;;
13475;SDS011;6810;63.824;20.288;2022-11-14T00:22:06;2.10;;;1.33;;
13475;SDS011;6810;63.824;20.288;2022-11-14T00:24:52;2.47;;;1.27;;
13475;SDS011;6810;63.824;20.288;2022-11-14T00:27:37;1.90;;;1.20;;
13475;SDS011;6810;63.824;20.288;2022-11-14T00:30:23;1.83;;;1.20;;
13475;SDS011;6810;63.824;20.288;2022-11-14T00:33:09;2.20;;;1.10;;
13475;SDS011;6810;63.824;20.288;2022-11-14T00:36:01;2.07;;;1.10;;
13475;SDS011;6810;63.824;20.288;2022-11-14T00:38:50;2.50;;;1.00;;
13475;SDS011;6810;63.824;20.288;2022-11-14T00:41:37;4.50;;;1.50;;
13475;SDS011;6810;63.824;20.288;2022-11-14T00:44:23;1.80;;;1.20;;
13475;SDS011;6810;63.824;20.288;2022-11-14T00:47:08;1.87;;;1.03;;
13475;SDS011;6810;63.824;20.288;2022-11-14T00:49:54;1.87;;;1.37;;
13475;SDS011;6810;63.824;20.288;2022-11-14T00:52:39;4.47;;;1.33;;
13475;SDS011;6810;63.824;20.288;2022-11-14T00:55:25;3.57;;;1.30;;
13475;SDS011;6810;63.824;20.288;2022-11-14T00:58:11;4.50;;;1.20;;
13475;SDS011;6810;63.824;20.288;2022-11-14T01:00:56;1.43;;;1.00;;
13475;SDS011;6810;63.824;20.288;2022-11-14T01:03:41;2.27;;;1.30;;
13475;SDS011;6810;63.824;20.288;2022-11-14T01:06:27;2.23;;;1.00;;
13475;SDS011;6810;63.824;20.288;2022-11-14T01:09:12;2.17;;;0.90;;
13475;SDS011;6810;63.824;20.288;2022-11-14T01:11:58;2.17;;;1.13;;
13475;SDS011;6810;63.824;20.288;2022-11-14T01:14:44;2.27;;;1.07;;
13475;SDS011;6810;63.824;20.288;2022-11-14T01:17:29;1.20;;;0.93;;
13475;SDS011;6810;63.824;20.288;2022-11-14T01:20:15;2.00;;;1.00;;
13475;SDS011;6810;63.824;20.288;2022-11-14T01:23:00;3.27;;;1.07;;
13475;SDS011;6810;63.824;20.288;2022-11-14T01:25:46;4.53;;;0.90;;
13475;SDS011;6810;63.824;20.288;2022-11-14T01:28:31;1.70;;;0.77;;
13475;SDS011;6810;63.824;20.288;2022-11-14T01:31:18;0.70;;;0.70;;
13475;SDS011;6810;63.824;20.288;2022-11-14T01:34:05;2.00;;;0.90;;
13475;SDS011;6810;63.824;20.288;2022-11-14T01:36:51;1.30;;;0.73;;
13475;SDS011;6810;63.824;20.288;2022-11-14T01:39:56;4.00;;;0.77;;
13475;SDS011;6810;63.824;20.288;2022-11-14T01:43:35;0.93;;;0.80;;
13475;SDS011;6810;63.824;20.288;2022-11-14T01:46:35;2.20;;;0.90;;
13475;SDS011;6810;63.824;20.288;2022-11-14T01:49:46;1.97;;;0.80;;
13475;SDS011;6810;63.824;20.288;2022-11-14T01:52:53;0.97;;;0.67;;
13475;SDS011;6810;63.824;20.288;2022-11-14T01:56:03;1.77;;;0.70;;
13475;SDS011;6810;63.824;20.288;2022-11-14T01:59:13;1.77;;;0.77;;
13475;SDS011;6810;63.824;20.288;2022-11-14T02:02:22;2.03;;;0.70;;
13475;SDS011;6810;63.824;20.288;2022-11-14T02:05:29;1.07;;;0.50;;
13475;SDS011;6810;63.824;20.288;2022-11-14T02:08:36;2.23;;;0.80;;
13475;SDS011;6810;63.824;20.288;2022-11-14T02:11:43;4.20;;;0.73;;
13475;SDS011;6810;63.824;20.288;2022-11-14T02:14:51;2.67;;;0.60;;
13475;SDS011;6810;63.824;20.288;2022-11-14T02:18:00;1.60;;;0.60;;
13475;SDS011;6810;63.824;20.288;2022-11-14T02:21:06;3.80;;;0.93;;
13475;SDS011;6810;63.824;20.288;2022-11-14T02:24:12;1.00;;;0.70;;
13475;SDS011;6810;63.824;20.288;2022-11-14T02:27:17;1.17;;;0.50;;
13475;SDS011;6810;63.824;20.288;2022-11-14T02:30:23;2.90;;;0.90;;
13475;SDS011;6810;63.824;20.288;2022-11-14T02:33:29;1.03;;;0.70;;
13475;SDS011;6810;63.824;20.288;2022-11-14T02:36:34;1.13;;;0.70;;
13475;SDS011;6810;63.824;20.288;2022-11-14T02:39:39;1.37;;;0.60;;
13475;SDS011;6810;63.824;20.288;2022-11-14T02:42:44;1.07;;;0.60;;
13475;SDS011;6810;63.824;20.288;2022-11-14T02:45:50;2.07;;;0.70;;
13475;SDS011;6810;63.824;20.288;2022-11-14T02:48:56;2.10;;;0.70;;
13475;SDS011;6810;63.824;20.288;2022-11-14T02:52:01;0.70;;;0.50;;
13475;SDS011;6810;63.824;20.288;2022-11-14T02:55:07;1.80;;;0.60;;
13475;SDS011;6810;63.824;20.288;2022-11-14T02:58:13;1.17;;;0.53;;
13475;SDS011;6810;63.824;20.288;2022-11-14T03:01:19;1.27;;;0.43;;
13475;SDS011;6810;63.824;20.288;2022-11-14T03:04:25;1.67;;;0.33;;
13475;SDS011;6810;63.824;20.288;2022-11-14T03:07:30;1.57;;;0.70;;
13475;SDS011;6810;63.824;20.288;2022-11-14T03:10:36;0.80;;;0.60;;
13475;SDS011;6810;63.824;20.288;2022-11-14T03:13:41;1.27;;;0.60;;
13475;SDS011;6810;63.824;20.288;2022-11-14T03:16:47;0.87;;;0.50;;
13475;SDS011;6810;63.824;20.288;2022-11-14T03:19:52;2.03;;;0.70;;
13475;SDS011;6810;63.824;20.288;2022-11-14T03:22:58;1.53;;;0.70;;
13475;SDS011;6810;63.824;20.288;2022-11-14T03:26:05;0.80;;;0.67;;
13475;SDS011;6810;63.824;20.288;2022-11-14T03:29:12;0.60;;;0.47;;
13475;SDS011;6810;63.824;20.288;2022-11-14T03:32:17;1.03;;;0.80;;
13475;SDS011;6810;63.824;20.288;2022-11-14T03:35:22;1.90;;;0.63;;
13475;SDS011;6810;63.824;20.288;2022-11-14T03:38:28;0.90;;;0.60;;
13475;SDS011;6810;63.824;20.288;2022-11-14T03:41:34;1.53;;;0.70;;
13475;SDS011;6810;63.824;20.288;2022-11-14T03:44:39;2.83;;;0.60;;
13475;SDS011;6810;63.824;20.288;2022-11-14T03:47:45;1.50;;;0.60;;
13475;SDS011;6810;63.824;20.288;2022-11-14T03:50:50;1.87;;;0.83;;
13475;SDS011;6810;63.824;20.288;2022-11-14T03:53:56;2.50;;;0.70;;
13475;SDS011;6810;63.824;20.288;2022-11-14T03:57:02;1.60;;;0.60;;
13475;SDS011;6810;63.824;20.288;2022-11-14T04:00:08;2.10;;;0.80;;
13475;SDS011;6810;63.824;20.288;2022-11-14T04:03:14;1.97;;;0.60;;
13475;SDS011;6810;63.824;20.288;2022-11-14T04:06:19;1.00;;;0.40;;
13475;SDS011;6810;63.824;20.288;2022-11-14T04:09:25;0.43;;;0.43;;
13475;SDS011;6810;63.824;20.288;2022-11-14T04:12:30;1.23;;;0.50;;
13475;SDS011;6810;63.824;20.288;2022-11-14T04:15:36;1.70;;;0.53;;
13475;SDS011;6810;63.824;20.288;2022-11-14T04:18:42;1.27;;;0.50;;
13475;SDS011;6810;63.824;20.288;2022-11-14T04:21:47;1.20;;;0.50;;
13475;SDS011;6810;63.824;20.288;2022-11-14T04:24:52;2.63;;;0.60;;
13475;SDS011;6810;63.824;20.288;2022-11-14T04:27:58;1.03;;;0.30;;
13475;SDS011;6810;63.824;20.288;2022-11-14T04:31:04;2.57;;;0.60;;
13475;SDS011;6810;63.824;20.288;2022-11-14T04:34:09;1.13;;;0.60;;
13475;SDS011;6810;63.824;20.288;2022-11-14T04:37:14;3.73;;;0.60;;
13475;SDS011;6810;63.824;20.288;2022-11-14T04:40:20;1.03;;;0.50;;
13475;SDS011;6810;63.824;20.288;2022-11-14T04:43:25;1.20;;;0.40;;
13475;SDS011;6810;63.824;20.288;2022-11-14T04:46:35;1.93;;;0.67;;
13475;SDS011;6810;63.824;20.288;2022-11-14T04:49:40;2.33;;;0.73;;
13475;SDS011;6810;63.824;20.288;2022-11-14T04:52:46;3.40;;;0.80;;
13475;SDS011;6810;63.824;20.288;2022-11-14T04:55:55;1.53;;;0.60;;
13475;SDS011;6810;63.824;20.288;2022-11-14T04:59:00;1.07;;;0.80;;
13475;SDS011;6810;63.824;20.288;2022-11-14T05:02:06;0.67;;;0.60;;
13475;SDS011;6810;63.824;20.288;2022-11-14T05:05:12;4.70;;;0.57;;
13475;SDS011;6810;63.824;20.288;2022-11-14T05:08:23;5.03;;;0.90;;
13475;SDS011;6810;63.824;20.288;2022-11-14T05:11:28;3.70;;;0.60;;
13475;SDS011;6810;63.824;20.288;2022-11-14T05:14:34;5.17;;;1.00;;
13475;SDS011;6810;63.824;20.288;2022-11-14T05:17:39;4.73;;;1.00;;
13475;SDS011;6810;63.824;20.288;2022-11-14T05:20:45;6.40;;;1.10;;
13475;SDS011;6810;63.824;20.288;2022-11-14T05:23:50;5.30;;;1.00;;
13475;SDS011;6810;63.824;20.288;2022-11-14T05:26:57;2.43;;;0.80;;
13475;SDS011;6810;63.824;20.288;2022-11-14T05:30:03;2.53;;;0.80;;
13475;SDS011;6810;63.824;20.288;2022-11-14T05:33:09;1.03;;;0.90;;
13475;SDS011;6810;63.824;20.288;2022-11-14T05:36:15;1.73;;;0.73;;
13475;SDS011;6810;63.824;20.288;2022-11-14T05:39:21;3.30;;;0.80;;
13475;SDS011;6810;63.824;20.288;2022-11-14T05:42:26;4.70;;;0.97;;
13475;SDS011;6810;63.824;20.288;2022-11-14T05:45:32;3.73;;;0.97;;
13475;SDS011;6810;63.824;20.288;2022-11-14T05:48:38;5.73;;;0.83;;
13475;SDS011;6810;63.824;20.288;2022-11-14T05:51:43;3.37;;;0.77;;
13475;SDS011;6810;63.824;20.288;2022-11-14T05:54:49;2.90;;;0.77;;
13475;SDS011;6810;63.824;20.288;2022-11-14T05:57:58;2.53;;;0.80;;
13475;SDS011;6810;63.824;20.288;2022-11-14T06:01:09;2.07;;;0.80;;
13475;SDS011;6810;63.824;20.288;2022-11-14T06:04:16;1.90;;;0.70;;
13475;SDS011;6810;63.824;20.288;2022-11-14T06:07:22;0.77;;;0.47;;
13475;SDS011;6810;63.824;20.288;2022-11-14T06:10:27;2.37;;;0.60;;
13475;SDS011;6810;63.824;20.288;2022-11-14T06:13:34;4.90;;;0.83;;
13475;SDS011;6810;63.824;20.288;2022-11-14T06:16:39;3.23;;;0.70;;
13475;SDS011;6810;63.824;20.288;2022-11-14T06:19:45;3.03;;;0.63;;
13475;SDS011;6810;63.824;20.288;2022-11-14T06:22:52;1.63;;;0.80;;
13475;SDS011;6810;63.824;20.288;2022-11-14T06:25:59;4.70;;;0.80;;
13475;SDS011;6810;63.824;20.288;2022-11-14T06:29:05;3.77;;;1.30;;
13475;SDS011;6810;63.824;20.288;2022-11-14T06:32:18;3.73;;;0.97;;
13475;SDS011;6810;63.824;20.288;2022-11-14T06:35:24;2.10;;;1.10;;
13475;SDS011;6810;63.824;20.288;2022-11-14T06:38:31;2.60;;;1.00;;
13475;SDS011;6810;63.824;20.288;2022-11-14T06:41:37;2.43;;;0.87;;
13475;SDS011;6810;63.824;20.288;2022-11-14T06:44:44;3.50;;;0.80;;
13475;SDS011;6810;63.824;20.288;2022-11-14T06:47:50;2.63;;;0.70;;
13475;SDS011;6810;63.824;20.288;2022-11-14T06:50:56;4.07;;;0.90;;
13475;SDS011;6810;63.824;20.288;2022-11-14T06:54:02;0.77;;;0.60;;
13475;SDS011;6810;63.824;20.288;2022-11-14T06:57:07;5.80;;;0.90;;
13475;SDS011;6810;63.824;20.288;2022-11-14T07:00:13;2.63;;;0.77;;
13475;SDS011;6810;63.824;20.288;2022-11-14T07:03:19;2.70;;;0.70;;
13475;SDS011;6810;63.824;20.288;2022-11-14T07:06:25;5.67;;;1.10;;
13475;SDS011;6810;63.824;20.288;2022-11-14T07:09:31;2.43;;;0.57;;
13475;SDS011;6810;63.824;20.288;2022-11-14T07:12:37;3.93;;;0.70;;
13475;SDS011;6810;63.824;20.288;2022-11-14T07:15:52;2.47;;;1.00;;
13475;SDS011;6810;63.824;20.288;2022-11-14T07:18:58;2.40;;;0.40;;
13475;SDS011;6810;63.824;20.288;2022-11-14T07:22:05;0.63;;;0.40;;
13475;SDS011;6810;63.824;20.288;2022-11-14T07:25:11;3.33;;;0.53;;
13475;SDS011;6810;63.824;20.288;2022-11-14T07:28:16;3.13;;;1.03;;
13475;SDS011;6810;63.824;20.288;2022-11-14T07:31:22;1.43;;;0.70;;
13475;SDS011;6810;63.824;20.288;2022-11-14T07:34:27;0.50;;;0.50;;
13475;SDS011;6810;63.824;20.288;2022-11-14T07:37:33;2.67;;;0.70;;
13475;SDS011;6810;63.824;20.288;2022-11-14T07:40:38;4.20;;;0.70;;
13475;SDS011;6810;63.824;20.288;2022-11-14T07:43:44;1.53;;;0.50;;
13475;SDS011;6810;63.824;20.288;2022-11-14T07:46:50;1.33;;;0.33;;
13475;SDS011;6810;63.824;20.288;2022-11-14T07:49:55;0.87;;;0.33;;
13475;SDS011;6810;63.824;20.288;2022-11-14T07:53:04;2.77;;;0.80;;
13475;SDS011;6810;63.824;20.288;2022-11-14T07:56:10;3.30;;;0.67;;
13475;SDS011;6810;63.824;20.288;2022-11-14T07:59:16;3.37;;;0.63;;
13475;SDS011;6810;63.824;20.288;2022-11-14T08:02:21;2.00;;;0.70;;
13475;SDS011;6810;63.824;20.288;2022-11-14T08:05:27;1.90;;;0.80;;
13475;SDS011;6810;63.824;20.288;2022-11-14T08:08:32;0.73;;;0.50;;
13475;SDS011;6810;63.824;20.288;2022-11-14T08:11:37;2.23;;;0.53;;
13475;SDS011;6810;63.824;20.288;2022-11-14T08:14:51;0.90;;;0.60;;
13475;SDS011;6810;63.824;20.288;2022-11-14T08:17:57;1.50;;;0.50;;
13475;SDS011;6810;63.824;20.288;2022-11-14T08:21:03;1.40;;;0.60;;
13475;SDS011;6810;63.824;20.288;2022-11-14T08:24:09;0.60;;;0.50;;
13475;SDS011;6810;63.824;20.288;2022-11-14T08:27:14;2.93;;;0.77;;
13475;SDS011;6810;63.824;20.288;2022-11-14T08:30:20;2.00;;;0.50;;
13475;SDS011;6810;63.824;20.288;2022-11-14T08:33:25;1.17;;;0.30;;
13475;SDS011;6810;63.824;20.288;2022-11-14T08:36:31;0.90;;;0.40;;
13475;SDS011;6810;63.824;20.288;2022-11-14T08:39:37;0.70;;;0.50;;
13475;SDS011;6810;63.824;20.288;2022-11-14T08:42:42;1.90;;;0.30;;
13475;SDS011;6810;63.824;20.288;2022-11-14T08:45:48;1.27;;;0.60;;
13475;SDS011;6810;63.824;20.288;2022-11-14T08:48:33;1.27;;;0.50;;
13475;SDS011;6810;63.824;20.288;2022-11-14T08:51:18;0.93;;;0.57;;
13475;SDS011;6810;63.824;20.288;2022-11-14T08:54:04;1.20;;;0.50;;
13475;SDS011;6810;63.824;20.288;2022-11-14T08:56:49;0.80;;;0.70;;
13475;SDS011;6810;63.824;20.288;2022-11-14T08:59:55;2.83;;;0.60;;
13475;SDS011;6810;63.824;20.288;2022-11-14T09:03:00;2.27;;;0.67;;
13475;SDS011;6810;63.824;20.288;2022-11-14T09:06:10;1.40;;;0.60;;
13475;SDS011;6810;63.824;20.288;2022-11-14T09:09:16;0.97;;;0.60;;
13475;SDS011;6810;63.824;20.288;2022-11-14T09:12:40;1.40;;;0.50;;
13475;SDS011;6810;63.824;20.288;2022-11-14T09:15:46;1.00;;;0.70;;
13475;SDS011;6810;63.824;20.288;2022-11-14T09:18:51;2.37;;;0.50;;
13475;SDS011;6810;63.824;20.288;2022-11-14T09:21:57;1.57;;;0.63;;
13475;SDS011;6810;63.824;20.288;2022-11-14T09:25:02;9.83;;;1.33;;
13475;SDS011;6810;63.824;20.288;2022-11-14T09:28:08;6.63;;;1.40;;
13475;SDS011;6810;63.824;20.288;2022-11-14T09:31:14;11.63;;;1.50;;
13475;SDS011;6810;63.824;20.288;2022-11-14T09:34:19;6.33;;;1.40;;
13475;SDS011;6810;63.824;20.288;2022-11-14T09:37:25;9.67;;;1.80;;
13475;SDS011;6810;63.824;20.288;2022-11-14T09:40:11;12.63;;;1.73;;
13475;SDS011;6810;63.824;20.288;2022-11-14T09:46:44;8.87;;;2.07;;
13475;SDS011;6810;63.824;20.288;2022-11-14T09:49:58;7.43;;;1.87;;
13475;SDS011;6810;63.824;20.288;2022-11-14T09:53:33;9.67;;;2.07;;
13475;SDS011;6810;63.824;20.288;2022-11-14T09:56:43;9.83;;;2.20;;
13475;SDS011;6810;63.824;20.288;2022-11-14T09:59:49;6.57;;;2.07;;
13475;SDS011;6810;63.824;20.288;2022-11-14T10:08:59;13.23;;;2.23;;
13475;SDS011;6810;63.824;20.288;2022-11-14T10:12:19;14.60;;;2.87;;
13475;SDS011;6810;63.824;20.288;2022-11-14T10:22:42;15.67;;;2.33;;
13475;SDS011;6810;63.824;20.288;2022-11-14T10:35:54;14.50;;;2.70;;
13475;SDS011;6810;63.824;20.288;2022-11-14T10:39:12;15.40;;;3.70;;
13475;SDS011;6810;63.824;20.288;2022-11-14T10:42:30;12.20;;;2.43;;
13475;SDS011;6810;63.824;20.288;2022-11-14T10:45:41;15.40;;;2.83;;
13475;SDS011;6810;63.824;20.288;2022-11-14T10:48:52;15.67;;;2.87;;
13475;SDS011;6810;63.824;20.288;2022-11-14T10:51:58;18.03;;;3.13;;
13475;SDS011;6810;63.824;20.288;2022-11-14T10:55:14;18.47;;;3.93;;
13475;SDS011;6810;63.824;20.288;2022-11-14T10:58:42;9.13;;;2.20;;
13475;SDS011;6810;63.824;20.288;2022-11-14T11:05:03;12.73;;;2.70;;
13475;SDS011;6810;63.824;20.288;2022-11-14T11:08:19;9.30;;;2.40;;
13475;SDS011;6810;63.824;20.288;2022-11-14T11:11:28;10.83;;;2.73;;
13475;SDS011;6810;63.824;20.288;2022-11-14T11:14:34;5.83;;;2.13;;
13475;SDS011;6810;63.824;20.288;2022-11-14T11:17:52;10.20;;;3.20;;
13475;SDS011;6810;63.824;20.288;2022-11-14T11:21:10;9.97;;;2.17;;
13475;SDS011;6810;63.824;20.288;2022-11-14T11:24:38;7.57;;;2.07;;
13475;SDS011;6810;63.824;20.288;2022-11-14T11:27:42;6.20;;;2.23;;
13475;SDS011;6810;63.824;20.288;2022-11-14T11:30:55;5.97;;;1.90;;
13475;SDS011;6810;63.824;20.288;2022-11-14T11:34:02;6.07;;;2.13;;
13475;SDS011;6810;63.824;20.288;2022-11-14T11:37:14;6.83;;;2.13;;
13475;SDS011;6810;63.824;20.288;2022-11-14T11:40:26;10.20;;;1.90;;
13475;SDS011;6810;63.824;20.288;2022-11-14T11:43:49;10.43;;;2.00;;
13475;SDS011;6810;63.824;20.288;2022-11-14T11:47:01;5.77;;;1.83;;
13475;SDS011;6810;63.824;20.288;2022-11-14T11:50:13;9.03;;;2.47;;
13475;SDS011;6810;63.824;20.288;2022-11-14T11:53:22;7.17;;;2.57;;
13475;SDS011;6810;63.824;20.288;2022-11-14T11:56:33;9.40;;;2.33;;
13475;SDS011;6810;63.824;20.288;2022-11-14T11:59:42;5.83;;;2.33;;
13475;SDS011;6810;63.824;20.288;2022-11-14T12:02:52;8.73;;;2.73;;
13475;SDS011;6810;63.824;20.288;2022-11-14T12:09:23;8.23;;;2.30;;
13475;SDS011;6810;63.824;20.288;2022-11-14T12:13:00;5.70;;;2.27;;
13475;SDS011;6810;63.824;20.288;2022-11-14T12:16:24;8.20;;;2.70;;
13475;SDS011;6810;63.824;20.288;2022-11-14T12:19:50;7.77;;;2.20;;
13475;SDS011;6810;63.824;20.288;2022-11-14T12:30:25;10.07;;;2.73;;
13475;SDS011;6810;63.824;20.288;2022-11-14T12:33:33;8.00;;;2.50;;
13475;SDS011;6810;63.824;20.288;2022-11-14T12:36:43;9.27;;;2.80;;
13475;SDS011;6810;63.824;20.288;2022-11-14T12:40:24;6.10;;;2.67;;
13475;SDS011;6810;63.824;20.288;2022-11-14T12:43:31;8.60;;;2.53;;
13475;SDS011;6810;63.824;20.288;2022-11-14T12:50:27;7.63;;;2.80;;
13475;SDS011;6810;63.824;20.288;2022-11-14T12:53:36;8.97;;;2.20;;
13475;SDS011;6810;63.824;20.288;2022-11-14T12:56:51;8.10;;;2.77;;
13475;SDS011;6810;63.824;20.288;2022-11-14T13:00:06;5.90;;;2.10;;
13475;SDS011;6810;63.824;20.288;2022-11-14T13:13:18;6.43;;;2.40;;
13475;SDS011;6810;63.824;20.288;2022-11-14T13:16:29;5.13;;;1.90;;
13475;SDS011;6810;63.824;20.288;2022-11-14T13:19:41;4.97;;;2.13;;
13475;SDS011;6810;63.824;20.288;2022-11-14T13:22:48;7.20;;;2.40;;
13475;SDS011;6810;63.824;20.288;2022-11-14T13:35:49;5.97;;;1.67;;
13475;SDS011;6810;63.824;20.288;2022-11-14T13:39:12;3.50;;;1.57;;
13475;SDS011;6810;63.824;20.288;2022-11-14T13:53:00;2.27;;;1.20;;
13475;SDS011;6810;63.824;20.288;2022-11-14T13:56:23;2.83;;;1.30;;
13475;SDS011;6810;63.824;20.288;2022-11-14T13:59:43;1.53;;;1.10;;
13475;SDS011;6810;63.824;20.288;2022-11-14T14:03:12;2.57;;;1.30;;
13475;SDS011;6810;63.824;20.288;2022-11-14T14:09:53;2.00;;;1.17;;
13475;SDS011;6810;63.824;20.288;2022-11-14T14:13:32;2.87;;;1.00;;
13475;SDS011;6810;63.824;20.288;2022-11-14T14:17:14;2.20;;;1.13;;
13475;SDS011;6810;63.824;20.288;2022-11-14T14:20:45;2.20;;;1.00;;
13475;SDS011;6810;63.824;20.288;2022-11-14T14:23:54;3.30;;;1.10;;
13475;SDS011;6810;63.824;20.288;2022-11-14T14:30:26;4.13;;;1.23;;
13475;SDS011;6810;63.824;20.288;2022-11-14T14:33:42;1.87;;;1.33;;
13475;SDS011;6810;63.824;20.288;2022-11-14T14:36:55;3.87;;;1.20;;
13475;SDS011;6810;63.824;20.288;2022-11-14T14:40:03;2.43;;;1.43;;
13475;SDS011;6810;63.824;20.288;2022-11-14T14:43:23;3.43;;;1.20;;
13475;SDS011;6810;63.824;20.288;2022-11-14T14:46:36;2.53;;;1.40;;
13475;SDS011;6810;63.824;20.288;2022-11-14T14:49:41;1.70;;;0.93;;
13475;SDS011;6810;63.824;20.288;2022-11-14T14:52:57;3.77;;;1.23;;
13475;SDS011;6810;63.824;20.288;2022-11-14T14:56:05;3.70;;;1.37;;
13475;SDS011;6810;63.824;20.288;2022-11-14T14:59:22;3.43;;;1.20;;
13475;SDS011;6810;63.824;20.288;2022-11-14T15:02:29;1.53;;;1.07;;
13475;SDS011;6810;63.824;20.288;2022-11-14T15:05:35;2.77;;;1.20;;
13475;SDS011;6810;63.824;20.288;2022-11-14T15:08:40;1.50;;;1.00;;
13475;SDS011;6810;63.824;20.288;2022-11-14T15:11:47;3.07;;;1.37;;
13475;SDS011;6810;63.824;20.288;2022-11-14T15:14:54;2.20;;;1.20;;
13475;SDS011;6810;63.824;20.288;2022-11-14T15:18:03;2.27;;;1.10;;
13475;SDS011;6810;63.824;20.288;2022-11-14T15:24:26;4.50;;;1.40;;
13475;SDS011;6810;63.824;20.288;2022-11-14T15:27:31;3.97;;;1.40;;
13475;SDS011;6810;63.824;20.288;2022-11-14T15:30:36;3.47;;;1.30;;
13475;SDS011;6810;63.824;20.288;2022-11-14T15:33:42;4.80;;;1.57;;
13475;SDS011;6810;63.824;20.288;2022-11-14T15:37:06;3.40;;;1.30;;
13475;SDS011;6810;63.824;20.288;2022-11-14T15:40:16;0.97;;;0.70;;
13475;SDS011;6810;63.824;20.288;2022-11-14T15:46:47;2.17;;;1.43;;
13475;SDS011;6810;63.824;20.288;2022-11-14T15:50:36;1.10;;;1.00;;
13475;SDS011;6810;63.824;20.288;2022-11-14T15:53:23;2.63;;;1.07;;
13475;SDS011;6810;63.824;20.288;2022-11-14T15:56:33;2.90;;;1.33;;
13475;SDS011;6810;63.824;20.288;2022-11-14T15:59:38;2.73;;;1.00;;
13475;SDS011;6810;63.824;20.288;2022-11-14T16:02:45;1.90;;;0.70;;
13475;SDS011;6810;63.824;20.288;2022-11-14T16:05:54;2.90;;;1.20;;
13475;SDS011;6810;63.824;20.288;2022-11-14T16:08:59;1.07;;;0.90;;
13475;SDS011;6810;63.824;20.288;2022-11-14T16:12:04;1.47;;;1.00;;
13475;SDS011;6810;63.824;20.288;2022-11-14T16:15:10;2.93;;;1.13;;
13475;SDS011;6810;63.824;20.288;2022-11-14T16:18:16;2.30;;;1.10;;
13475;SDS011;6810;63.824;20.288;2022-11-14T16:21:21;5.13;;;1.00;;
13475;SDS011;6810;63.824;20.288;2022-11-14T16:24:28;2.87;;;1.23;;
13475;SDS011;6810;63.824;20.288;2022-11-14T16:27:34;1.63;;;1.00;;
13475;SDS011;6810;63.824;20.288;2022-11-14T16:30:40;1.77;;;1.17;;
13475;SDS011;6810;63.824;20.288;2022-11-14T16:33:45;2.77;;;0.80;;
13475;SDS011;6810;63.824;20.288;2022-11-14T16:36:55;1.53;;;1.00;;
13475;SDS011;6810;63.824;20.288;2022-11-14T16:40:02;1.43;;;0.80;;
13475;SDS011;6810;63.824;20.288;2022-11-14T16:43:08;1.27;;;0.80;;
13475;SDS011;6810;63.824;20.288;2022-11-14T16:46:17;0.90;;;0.80;;
13475;SDS011;6810;63.824;20.288;2022-11-14T16:49:23;1.57;;;0.70;;
13475;SDS011;6810;63.824;20.288;2022-11-14T16:52:17;0.87;;;0.47;;
13475;SDS011;6810;63.824;20.288;2022-11-14T16:55:04;1.13;;;0.60;;
13475;SDS011;6810;63.824;20.288;2022-11-14T16:57:50;1.17;;;0.70;;
13475;SDS011;6810;63.824;20.288;2022-11-14T17:00:36;1.57;;;0.80;;
13475;SDS011;6810;63.824;20.288;2022-11-14T17:03:21;2.73;;;0.70;;
13475;SDS011;6810;63.824;20.288;2022-11-14T17:06:07;2.23;;;0.70;;
13475;SDS011;6810;63.824;20.288;2022-11-14T17:08:54;1.00;;;0.80;;
13475;SDS011;6810;63.824;20.288;2022-11-14T17:11:41;1.20;;;0.60;;
13475;SDS011;6810;63.824;20.288;2022-11-14T17:14:28;2.20;;;0.73;;
13475;SDS011;6810;63.824;20.288;2022-11-14T17:17:14;0.83;;;0.50;;
13475;SDS011;6810;63.824;20.288;2022-11-14T17:20:00;0.50;;;0.50;;
13475;SDS011;6810;63.824;20.288;2022-11-14T17:22:45;1.33;;;0.60;;
13475;SDS011;6810;63.824;20.288;2022-11-14T17:25:31;2.27;;;0.70;;
13475;SDS011;6810;63.824;20.288;2022-11-14T17:28:16;2.10;;;0.77;;
13475;SDS011;6810;63.824;20.288;2022-11-14T17:31:05;1.23;;;0.70;;
13475;SDS011;6810;63.824;20.288;2022-11-14T17:33:53;0.80;;;0.70;;
13475;SDS011;6810;63.824;20.288;2022-11-14T17:36:40;0.97;;;0.57;;
13475;SDS011;6810;63.824;20.288;2022-11-14T17:39:28;1.80;;;0.60;;
13475;SDS011;6810;63.824;20.288;2022-11-14T17:42:14;2.73;;;0.97;;
13475;SDS011;6810;63.824;20.288;2022-11-14T17:44:59;0.90;;;0.60;;
13475;SDS011;6810;63.824;20.288;2022-11-14T17:48:05;2.80;;;0.90;;
13475;SDS011;6810;63.824;20.288;2022-11-14T17:51:12;0.73;;;0.60;;
13475;SDS011;6810;63.824;20.288;2022-11-14T17:54:18;1.43;;;0.50;;
13475;SDS011;6810;63.824;20.288;2022-11-14T17:57:24;1.30;;;0.57;;
13475;SDS011;6810;63.824;20.288;2022-11-14T18:00:29;2.93;;;0.77;;
13475;SDS011;6810;63.824;20.288;2022-11-14T18:03:35;1.07;;;0.60;;
13475;SDS011;6810;63.824;20.288;2022-11-14T18:06:45;2.37;;;0.60;;
13475;SDS011;6810;63.824;20.288;2022-11-14T18:09:51;1.53;;;0.60;;
13475;SDS011;6810;63.824;20.288;2022-11-14T18:12:56;2.10;;;0.60;;
13475;SDS011;6810;63.824;20.288;2022-11-14T18:16:03;1.73;;;0.60;;
13475;SDS011;6810;63.824;20.288;2022-11-14T18:19:34;3.07;;;0.80;;
13475;SDS011;6810;63.824;20.288;2022-11-14T18:22:39;1.93;;;0.90;;
13475;SDS011;6810;63.824;20.288;2022-11-14T18:25:45;1.47;;;0.77;;
13475;SDS011;6810;63.824;20.288;2022-11-14T18:28:52;1.70;;;0.57;;
13475;SDS011;6810;63.824;20.288;2022-11-14T18:31:48;1.57;;;0.80;;
13475;SDS011;6810;63.824;20.288;2022-11-14T18:34:53;0.77;;;0.60;;
13475;SDS011;6810;63.824;20.288;2022-11-14T18:37:59;1.33;;;0.90;;
13475;SDS011;6810;63.824;20.288;2022-11-14T18:41:09;1.80;;;0.60;;
13475;SDS011;6810;63.824;20.288;2022-11-14T18:44:19;2.10;;;0.80;;
13475;SDS011;6810;63.824;20.288;2022-11-14T18:47:24;0.57;;;0.43;;
13475;SDS011;6810;63.824;20.288;2022-11-14T18:50:30;1.07;;;0.70;;
13475;SDS011;6810;63.824;20.288;2022-11-14T18:53:35;1.20;;;0.77;;
13475;SDS011;6810;63.824;20.288;2022-11-14T18:56:41;0.60;;;0.60;;
13475;SDS011;6810;63.824;20.288;2022-11-14T18:59:46;1.10;;;0.80;;
13475;SDS011;6810;63.824;20.288;2022-11-14T19:02:51;2.87;;;0.93;;
13475;SDS011;6810;63.824;20.288;2022-11-14T19:06:00;1.23;;;0.70;;
13475;SDS011;6810;63.824;20.288;2022-11-14T19:09:07;1.87;;;0.70;;
13475;SDS011;6810;63.824;20.288;2022-11-14T19:12:14;1.60;;;0.60;;
13475;SDS011;6810;63.824;20.288;2022-11-14T19:15:22;0.63;;;0.50;;
13475;SDS011;6810;63.824;20.288;2022-11-14T19:18:28;2.47;;;0.60;;
13475;SDS011;6810;63.824;20.288;2022-11-14T19:21:34;0.63;;;0.50;;
13475;SDS011;6810;63.824;20.288;2022-11-14T19:24:40;1.23;;;0.50;;
13475;SDS011;6810;63.824;20.288;2022-11-14T19:27:51;2.43;;;0.60;;
13475;SDS011;6810;63.824;20.288;2022-11-14T19:31:02;1.10;;;0.50;;
13475;SDS011;6810;63.824;20.288;2022-11-14T19:34:09;0.93;;;0.60;;
13475;SDS011;6810;63.824;20.288;2022-11-14T19:37:14;2.47;;;0.60;;
13475;SDS011;6810;63.824;20.288;2022-11-14T19:40:20;1.63;;;0.50;;
13475;SDS011;6810;63.824;20.288;2022-11-14T19:43:25;1.67;;;0.67;;
13475;SDS011;6810;63.824;20.288;2022-11-14T19:46:31;1.00;;;0.70;;
13475;SDS011;6810;63.824;20.288;2022-11-14T19:49:37;1.67;;;0.93;;
13475;SDS011;6810;63.824;20.288;2022-11-14T19:52:42;1.03;;;0.83;;
13475;SDS011;6810;63.824;20.288;2022-11-14T19:55:28;1.27;;;0.93;;
13475;SDS011;6810;63.824;20.288;2022-11-14T19:58:15;1.13;;;0.87;;
13475;SDS011;6810;63.824;20.288;2022-11-14T20:01:00;2.20;;;0.70;;
13475;SDS011;6810;63.824;20.288;2022-11-14T20:03:54;1.47;;;0.70;;